Погода Пресиденсия-Роке-Саэнс-Пенана 2 недели

Гран-Чако, Аргентина

31 января-13 февраля
  • 31января
    Сегодня
    +21°
    +36°
    Ясно и безоблачно
    ВремяПогодаТемператураВлажностьДавлениеВетер, м/сВероятность осадков
    00:00Ясно и безоблачно+24°C82 %748 мм1.8 м/с5 %
    03:00Ясно и безоблачно+23°C94 %747 мм0.9 м/с5 %
    06:00Пасмурно, сплошная облачность+22°C99 %748 мм0.7 м/с5 %
    09:00Пасмурно, сплошная облачность+25°C88 %749 мм1.0 м/с2 %
    12:00Ясно и безоблачно+31°C63 %749 мм1.0 м/с11 %
    15:00Ясно и безоблачно+33°C48 %748 мм2.5 м/с7 %
    18:00Ясно и безоблачно+36°C40 %747 мм2.8 м/с2 %
    21:00Ясно и безоблачно+29°C56 %748 мм2.6 м/с5 %
  • 01февраля
    Среда
    +23°
    +38°
    Ясно и безоблачно
    ВремяПогодаТемператураВлажностьДавлениеВетер, м/сВероятность осадков
    00:00Ясно и безоблачно+25°C77 %750 мм2.0 м/с5 %
    03:00Ясно и безоблачно+23°C86 %749 мм1.8 м/с5 %
    06:00Ясно и безоблачно+21°C90 %749 мм1.6 м/с5 %
    09:00Ясно и безоблачно+28°C72 %750 мм1.3 м/с5 %
    12:00Ясно и безоблачно+34°C45 %750 мм0.5 м/с5 %
    15:00Ясно и безоблачно+36°C32 %748 мм2.0 м/с5 %
    18:00Ясно и безоблачно+38°C34 %747 мм1.5 м/с5 %
    21:00Ясно и безоблачно+31°C56 %748 мм2.2 м/с5 %
  • 02февраля
    Четверг
    +23°
    +34°
    Практически безоблачно
    ВремяПогодаТемператураВлажностьДавлениеВетер, м/сВероятность осадков
    00:00Ясно и безоблачно+28°C55 %749 мм2.7 м/с5 %
    03:00Ясно и безоблачно+27°C69 %749 мм2.1 м/с5 %
    06:00Ясно и безоблачно+23°C81 %749 мм1.7 м/с5 %
    09:00Небольшая облачность+28°C70 %750 мм1.0 м/с5 %
    12:00Практически безоблачно+33°C49 %750 мм1.1 м/с2 %
    15:00Практически безоблачно+34°C35 %748 мм3.6 м/с6 %
    18:00Ясно и безоблачно+33°C33 %747 мм3.2 м/с9 %
    21:00Облачно с прояснениями+26°C43 %749 мм5.3 м/с14 %
  • 03февраля
    Пятница
    +22°
    +36°
    Ясно и безоблачно
    ВремяПогодаТемператураВлажностьДавлениеВетер, м/сВероятность осадков
    00:00Облачно с прояснениями+24°C48 %750 мм3.2 м/с16 %
    03:00Ясно и безоблачно+24°C57 %749 мм3.9 м/с23 %
    06:00Ясно и безоблачно+23°C71 %749 мм4.1 м/с24 %
    09:00Ясно и безоблачно+27°C62 %751 мм5.0 м/с11 %
    12:00Практически безоблачно+32°C44 %751 мм6.0 м/с5 %
    15:00Ясно и безоблачно+33°C34 %749 мм6.1 м/с4 %
    18:00Небольшая облачность+35°C28 %748 мм6.1 м/с7 %
    21:00Практически безоблачно+31°C36 %749 мм4.1 м/с7 %
  • 04февраля
    Суббота
    +20°
    +34°
    Облачно с прояснениями
    ВремяПогодаТемператураВлажностьДавлениеВетер, м/сВероятность осадков
    00:00Облачно с прояснениями+26°C44 %751 мм4.1 м/с7 %
    03:00Ясно и безоблачно+25°C53 %751 мм3.7 м/с4 %
    06:00Практически безоблачно+23°C63 %751 мм3.6 м/с4 %
    09:00Ясно и безоблачно+27°C60 %753 мм4.8 м/с4 %
    12:00Практически безоблачно+31°C44 %753 мм5.3 м/с3 %
    15:00Облачно с прояснениями+32°C33 %752 мм5.0 м/с4 %
    18:00Облачно с прояснениями+34°C29 %750 мм5.3 м/с3 %
    21:00Практически безоблачно+29°C38 %751 мм2.5 м/с5 %
Мы используем cookies
Соглашаюсь